Time,TemperatureF,DewpointF,PressureIn,WindDirection,WindDirectionDegrees,WindSpeedMPH,WindSpeedGustMPH,Humidity,HourlyPrecipIn,Conditions,Clouds,dailyrainin,SoftwareType,DateUTC
2013-07-10 00:01:00,74.5,68.4,29.99,WSW,248,1.8,4.9,81,0.00,,,0.00,WUHU216HW,2013-07-10 04:01:00,
2013-07-10 00:06:00,74.5,68.4,29.99,SW,225,3.6,4.9,81,0.00,,,0.00,WUHU216HW,2013-07-10 04:06:00,
2013-07-10 00:11:00,74.2,68.1,29.99,SW,225,1.1,4.9,81,0.00,,,0.00,WUHU216HW,2013-07-10 04:11:00,
2013-07-10 00:16:00,74.2,68.1,29.99,SSW,203,1.1,4.9,81,0.00,,,0.00,WUHU216HW,2013-07-10 04:16:00,
2013-07-10 00:21:00,74.2,68.1,29.98,WSW,248,1.1,4.9,81,0.00,,,0.00,WUHU216HW,2013-07-10 04:21:00,
2013-07-10 00:26:00,74.2,68.1,29.98,SW,225,1.8,4.9,81,0.00,,,0.00,WUHU216HW,2013-07-10 04:26:00,
2013-07-10 00:31:00,74.2,68.1,29.99,SSW,203,1.3,4.9,81,0.00,,,0.00,WUHU216HW,2013-07-10 04:31:00,
2013-07-10 00:36:00,74.0,67.9,29.99,SW,225,0.4,4.9,81,0.00,,,0.00,WUHU216HW,2013-07-10 04:36:00,
2013-07-10 00:41:00,74.0,68.2,30.00,WSW,248,0.0,4.9,82,0.00,,,0.00,WUHU216HW,2013-07-10 04:41:00,
2013-07-10 00:46:00,73.8,68.1,30.00,WSW,248,0.0,4.9,82,0.00,,,0.00,WUHU216HW,2013-07-10 04:46:00,
2013-07-10 00:51:00,73.8,68.1,30.00,WSW,248,0.0,4.9,82,0.00,,,0.00,WUHU216HW,2013-07-10 04:51:00,
2013-07-10 00:56:00,73.8,68.1,30.00,SW,225,0.4,4.9,82,0.00,,,0.00,WUHU216HW,2013-07-10 04:56:00,
2013-07-10 01:01:00,73.8,68.1,30.00,SSW,203,1.1,4.9,82,0.00,,,0.00,WUHU216HW,2013-07-10 05:01:00,
2013-07-10 01:06:00,74.0,68.2,30.00,SW,225,0.7,4.9,82,0.00,,,0.00,WUHU216HW,2013-07-10 05:06:00,
2013-07-10 01:11:00,74.0,68.2,30.00,WSW,248,0.0,4.9,82,0.00,,,0.00,WUHU216HW,2013-07-10 05:11:00,
2013-07-10 01:16:00,74.2,68.4,30.00,South,180,0.0,4.9,82,0.00,,,0.00,WUHU216HW,2013-07-10 05:16:00,
2013-07-10 01:21:00,74.2,68.4,30.00,South,180,0.0,4.9,82,0.00,,,0.00,WUHU216HW,2013-07-10 05:21:00,
2013-07-10 01:26:00,74.3,68.6,29.99,WNW,293,0.0,4.9,82,0.00,,,0.00,WUHU216HW,2013-07-10 05:26:00,
2013-07-10 01:31:00,74.3,68.6,30.00,WNW,293,0.0,4.9,82,0.00,,,0.00,WUHU216HW,2013-07-10 05:31:00,
2013-07-10 01:36:00,74.3,68.6,29.99,WNW,293,0.0,4.9,82,0.00,,,0.00,WUHU216HW,2013-07-10 05:36:00,
2013-07-10 01:41:00,74.3,68.6,29.99,SW,225,0.0,4.9,82,0.00,,,0.00,WUHU216HW,2013-07-10 05:41:00,
2013-07-10 01:46:00,74.5,69.0,29.99,WSW,248,0.0,4.9,83,0.00,,,0.00,WUHU216HW,2013-07-10 05:46:00,
2013-07-10 01:51:00,74.3,68.9,29.99,SSW,203,0.0,4.9,83,0.00,,,0.00,WUHU216HW,2013-07-10 05:51:00,
2013-07-10 01:56:00,74.3,68.9,29.99,WSW,248,0.0,4.9,83,0.00,,,0.00,WUHU216HW,2013-07-10 05:56:00,
2013-07-10 02:01:00,74.3,68.9,29.98,SSW,203,0.0,4.9,83,0.00,,,0.00,WUHU216HW,2013-07-10 06:01:00,
2013-07-10 02:06:00,74.2,68.7,29.98,SSW,203,0.0,4.9,83,0.00,,,0.00,WUHU216HW,2013-07-10 06:06:00,
2013-07-10 02:11:00,74.2,68.7,29.98,SW,225,0.0,4.9,83,0.00,,,0.00,WUHU216HW,2013-07-10 06:11:00,
2013-07-10 02:16:00,74.2,68.7,29.98,SW,225,0.0,4.9,83,0.00,,,0.00,WUHU216HW,2013-07-10 06:16:00,
2013-07-10 02:21:00,74.2,68.7,29.98,SW,225,0.0,4.9,83,0.00,,,0.00,WUHU216HW,2013-07-10 06:21:00,
2013-07-10 02:26:00,74.2,68.7,29.98,SW,225,0.0,4.9,83,0.00,,,0.00,WUHU216HW,2013-07-10 06:26:00,
2013-07-10 02:31:00,74.2,68.7,29.98,SE,135,0.0,4.9,83,0.00,,,0.00,WUHU216HW,2013-07-10 06:31:00,
2013-07-10 02:36:00,74.3,68.9,29.98,SSW,203,0.4,4.9,83,0.00,,,0.00,WUHU216HW,2013-07-10 06:36:00,
2013-07-10 02:41:00,74.3,68.9,29.98,SSW,203,0.0,4.9,83,0.00,,,0.00,WUHU216HW,2013-07-10 06:41:00,
2013-07-10 02:46:00,74.3,68.9,29.97,SSW,203,1.8,4.9,83,0.00,,,0.00,WUHU216HW,2013-07-10 06:46:00,
2013-07-10 02:51:00,74.5,69.0,29.97,SSE,158,1.8,4.9,83,0.00,,,0.00,WUHU216HW,2013-07-10 06:51:00,
2013-07-10 02:56:00,74.5,69.0,29.97,SSW,203,0.0,4.9,83,0.00,,,0.00,WUHU216HW,2013-07-10 06:56:00,
2013-07-10 03:01:00,74.7,69.2,29.97,SW,225,1.1,4.9,83,0.00,,,0.00,WUHU216HW,2013-07-10 07:01:00,
2013-07-10 03:06:00,74.7,69.2,29.97,SW,225,0.7,4.9,83,0.00,,,0.00,WUHU216HW,2013-07-10 07:06:00,
2013-07-10 03:11:00,74.5,69.0,29.97,SW,225,1.6,4.9,83,0.00,,,0.00,WUHU216HW,2013-07-10 07:11:00,
2013-07-10 03:16:00,74.5,69.0,29.97,SW,225,2.5,4.9,83,0.00,,,0.00,WUHU216HW,2013-07-10 07:16:00,
2013-07-10 03:21:00,74.5,69.0,29.97,SW,225,0.0,4.9,83,0.00,,,0.00,WUHU216HW,2013-07-10 07:21:00,
2013-07-10 03:26:00,74.5,69.0,29.97,SW,225,0.0,4.9,83,0.00,,,0.00,WUHU216HW,2013-07-10 07:26:00,
2013-07-10 03:31:00,74.3,68.9,29.97,South,180,2.5,4.9,83,0.00,,,0.00,WUHU216HW,2013-07-10 07:31:00,
2013-07-10 03:36:00,74.3,69.2,29.97,SW,225,0.0,4.9,84,0.00,,,0.00,WUHU216HW,2013-07-10 07:36:00,
2013-07-10 03:41:00,74.3,69.2,29.97,South,180,1.8,4.9,84,0.00,,,0.00,WUHU216HW,2013-07-10 07:41:00,
2013-07-10 03:46:00,74.3,68.9,29.97,SSW,203,1.8,4.9,83,0.00,,,0.00,WUHU216HW,2013-07-10 07:46:00,
2013-07-10 03:51:00,74.3,69.2,29.97,SSW,203,0.4,4.9,84,0.00,,,0.00,WUHU216HW,2013-07-10 07:51:00,
2013-07-10 03:56:00,74.3,69.2,29.97,SW,225,0.4,4.9,84,0.00,,,0.00,WUHU216HW,2013-07-10 07:56:00,
2013-07-10 04:01:00,74.3,69.2,29.97,SW,225,1.3,4.9,84,0.00,,,0.00,WUHU216HW,2013-07-10 08:01:00,
2013-07-10 04:06:00,74.3,69.2,29.97,SW,225,0.4,4.9,84,0.00,,,0.00,WUHU216HW,2013-07-10 08:06:00,
2013-07-10 04:11:00,74.3,69.2,29.97,West,270,0.0,4.9,84,0.00,,,0.00,WUHU216HW,2013-07-10 08:11:00,
2013-07-10 04:16:00,74.2,69.0,29.97,WNW,293,0.2,4.9,84,0.00,,,0.00,WUHU216HW,2013-07-10 08:16:00,
2013-07-10 04:21:00,74.2,69.0,29.97,WSW,248,1.3,4.9,84,0.00,,,0.00,WUHU216HW,2013-07-10 08:21:00,
2013-07-10 04:26:00,74.0,68.9,29.97,WNW,293,0.4,4.9,84,0.00,,,0.00,WUHU216HW,2013-07-10 08:26:00,
2013-07-10 04:31:00,74.0,68.9,29.97,SW,225,1.3,4.9,84,0.00,,,0.00,WUHU216HW,2013-07-10 08:31:00,
2013-07-10 04:36:00,74.0,68.9,29.97,SSW,203,0.9,4.9,84,0.00,,,0.00,WUHU216HW,2013-07-10 08:36:00,
2013-07-10 04:41:00,74.0,68.9,29.96,SSW,203,0.4,4.9,84,0.00,,,0.00,WUHU216HW,2013-07-10 08:41:00,
2013-07-10 04:46:00,74.0,68.9,29.97,SW,225,1.1,4.9,84,0.00,,,0.00,WUHU216HW,2013-07-10 08:46:00,
2013-07-10 04:51:00,74.0,69.2,29.96,SSW,203,0.9,4.9,85,0.00,,,0.00,WUHU216HW,2013-07-10 08:51:00,
2013-07-10 04:56:00,74.0,68.9,29.97,WSW,248,0.2,4.9,84,0.00,,,0.00,WUHU216HW,2013-07-10 08:56:00,
2013-07-10 05:01:00,74.0,68.9,29.97,WSW,248,0.0,4.9,84,0.00,,,0.00,WUHU216HW,2013-07-10 09:01:00,
2013-07-10 05:06:00,74.0,69.2,29.97,WSW,248,0.0,4.9,85,0.00,,,0.00,WUHU216HW,2013-07-10 09:06:00,
2013-07-10 05:11:00,74.0,69.2,29.97,NW,315,0.7,4.9,85,0.00,,,0.00,WUHU216HW,2013-07-10 09:11:00,
2013-07-10 05:16:00,74.0,69.2,29.97,WSW,248,1.1,4.9,85,0.00,,,0.00,WUHU216HW,2013-07-10 09:16:00,
2013-07-10 05:21:00,74.0,69.2,29.97,SSW,203,1.1,4.9,85,0.00,,,0.00,WUHU216HW,2013-07-10 09:21:00,
2013-07-10 05:26:00,74.0,69.2,29.97,SW,225,0.7,4.9,85,0.00,,,0.00,WUHU216HW,2013-07-10 09:26:00,
2013-07-10 05:31:00,74.2,69.0,29.97,SW,225,1.1,4.9,84,0.00,,,0.00,WUHU216HW,2013-07-10 09:31:00,
2013-07-10 05:36:00,74.2,69.4,29.97,NW,315,0.0,4.9,85,0.00,,,0.00,WUHU216HW,2013-07-10 09:36:00,
2013-07-10 05:41:00,74.0,68.9,29.97,SSW,203,0.7,4.9,84,0.00,,,0.00,WUHU216HW,2013-07-10 09:41:00,
2013-07-10 05:46:00,74.0,68.9,29.97,SSW,203,0.9,4.9,84,0.00,,,0.00,WUHU216HW,2013-07-10 09:46:00,
2013-07-10 05:51:00,74.0,68.9,29.97,SW,225,0.0,4.9,84,0.00,,,0.00,WUHU216HW,2013-07-10 09:51:00,
2013-07-10 05:56:00,74.0,68.9,29.97,WSW,248,2.2,4.9,84,0.00,,,0.00,WUHU216HW,2013-07-10 09:56:00,
2013-07-10 06:01:00,74.0,68.9,29.97,WSW,248,0.0,4.9,84,0.00,,,0.00,WUHU216HW,2013-07-10 10:01:00,
2013-07-10 06:06:00,73.8,68.7,29.97,SSW,203,2.9,4.9,84,0.00,,,0.00,WUHU216HW,2013-07-10 10:06:00,
2013-07-10 06:11:00,73.8,69.0,29.96,SSW,203,3.6,4.9,85,0.00,,,0.00,WUHU216HW,2013-07-10 10:11:00,
2013-07-10 06:16:00,74.0,69.2,29.96,South,180,2.0,4.9,85,0.00,,,0.00,WUHU216HW,2013-07-10 10:16:00,
2013-07-10 06:21:00,74.0,69.2,29.96,SSW,203,2.2,4.9,85,0.00,,,0.00,WUHU216HW,2013-07-10 10:21:00,
2013-07-10 06:26:00,74.0,69.2,29.96,SW,225,1.8,4.9,85,0.00,,,0.00,WUHU216HW,2013-07-10 10:26:00,
2013-07-10 06:31:00,74.0,69.2,29.96,WSW,248,3.1,4.9,85,0.00,,,0.00,WUHU216HW,2013-07-10 10:31:00,
2013-07-10 06:37:00,73.8,69.0,29.96,SSW,203,4.0,4.9,85,0.00,,,0.00,WUHU216HW,2013-07-10 10:37:00,
2013-07-10 06:42:00,73.8,69.0,29.96,SW,225,3.4,4.9,85,0.00,,,0.00,WUHU216HW,2013-07-10 10:42:00,
2013-07-10 06:47:00,74.0,69.2,29.96,WSW,248,2.2,4.9,85,0.00,,,0.00,WUHU216HW,2013-07-10 10:47:00,
2013-07-10 06:52:00,74.0,69.2,29.97,West,270,0.0,4.9,85,0.00,,,0.00,WUHU216HW,2013-07-10 10:52:00,
2013-07-10 06:57:00,73.8,69.0,29.97,WSW,248,0.9,4.9,85,0.00,,,0.00,WUHU216HW,2013-07-10 10:57:00,
2013-07-10 07:02:00,73.8,69.0,29.97,SW,225,0.4,4.9,85,0.00,,,0.00,WUHU216HW,2013-07-10 11:02:00,
2013-07-10 07:07:00,73.6,68.9,29.97,SSE,158,0.0,4.9,85,0.00,,,0.00,WUHU216HW,2013-07-10 11:07:00,
2013-07-10 07:12:00,73.8,69.0,29.97,SSE,158,0.0,4.9,85,0.00,,,0.00,WUHU216HW,2013-07-10 11:12:00,
2013-07-10 07:17:00,73.8,69.0,29.97,SW,225,3.4,4.9,85,0.00,,,0.00,WUHU216HW,2013-07-10 11:17:00,
2013-07-10 07:22:00,73.8,69.4,29.97,South,180,1.1,4.9,86,0.00,,,0.00,WUHU216HW,2013-07-10 11:22:00,
2013-07-10 07:27:00,74.0,69.6,29.97,SSW,203,0.4,4.9,86,0.00,,,0.00,WUHU216HW,2013-07-10 11:27:00,
2013-07-10 07:32:00,74.0,69.6,29.97,WSW,248,0.4,4.9,86,0.00,,,0.00,WUHU216HW,2013-07-10 11:32:00,
2013-07-10 07:37:00,74.0,69.2,29.97,SSW,203,0.9,4.9,85,0.00,,,0.00,WUHU216HW,2013-07-10 11:37:00,
2013-07-10 07:42:00,74.2,69.4,29.97,SW,225,1.8,4.9,85,0.00,,,0.00,WUHU216HW,2013-07-10 11:42:00,
2013-07-10 07:47:00,74.2,69.4,29.97,SW,225,1.1,4.9,85,0.00,,,0.00,WUHU216HW,2013-07-10 11:47:00,
2013-07-10 07:52:00,74.2,69.4,29.97,SW,225,1.1,4.9,85,0.00,,,0.00,WUHU216HW,2013-07-10 11:52:00,
2013-07-10 07:57:00,74.2,69.4,29.97,SW,225,1.8,4.9,85,0.00,,,0.00,WUHU216HW,2013-07-10 11:57:00,
2013-07-10 08:02:00,74.3,69.6,29.97,SW,225,1.1,4.9,85,0.00,,,0.00,WUHU216HW,2013-07-10 12:02:00,
2013-07-10 08:07:00,74.5,69.8,29.98,WSW,248,3.6,4.9,85,0.00,,,0.00,WUHU216HW,2013-07-10 12:07:00,
2013-07-10 08:12:00,74.5,69.8,29.97,SW,225,1.8,4.9,85,0.00,,,0.00,WUHU216HW,2013-07-10 12:12:00,
2013-07-10 08:17:00,74.9,70.1,29.97,West,270,1.8,4.9,85,0.00,,,0.00,WUHU216HW,2013-07-10 12:17:00,
2013-07-10 08:22:00,74.9,70.1,29.97,SSW,203,3.4,4.9,85,0.00,,,0.00,WUHU216HW,2013-07-10 12:22:00,
2013-07-10 08:27:00,75.2,70.5,29.97,SSW,203,3.1,4.9,85,0.00,,,0.00,WUHU216HW,2013-07-10 12:27:00,
2013-07-10 08:32:00,75.4,70.7,29.98,SW,225,4.0,4.9,85,0.00,,,0.00,WUHU216HW,2013-07-10 12:32:00,
2013-07-10 08:37:00,75.6,70.5,29.98,SW,225,2.0,4.9,84,0.00,,,0.00,WUHU216HW,2013-07-10 12:37:00,
2013-07-10 08:42:00,75.8,70.7,29.98,SW,225,2.0,4.9,84,0.00,,,0.00,WUHU216HW,2013-07-10 12:42:00,
2013-07-10 08:47:00,75.8,70.7,29.98,SSW,203,3.1,4.9,84,0.00,,,0.00,WUHU216HW,2013-07-10 12:47:00,
2013-07-10 08:52:00,75.6,70.5,29.98,SW,225,2.5,4.9,84,0.00,,,0.00,WUHU216HW,2013-07-10 12:52:00,
2013-07-10 08:57:00,75.8,70.7,29.98,SW,225,2.9,4.9,84,0.00,,,0.00,WUHU216HW,2013-07-10 12:57:00,
2013-07-10 09:02:00,75.8,70.7,29.98,SSW,203,1.3,4.9,84,0.00,,,0.00,WUHU216HW,2013-07-10 13:02:00,
2013-07-10 09:07:00,75.6,70.5,29.98,South,180,0.9,4.9,84,0.00,,,0.00,WUHU216HW,2013-07-10 13:07:00,
2013-07-10 09:12:00,75.6,70.5,29.98,SSW,203,4.7,4.9,84,0.00,,,0.00,WUHU216HW,2013-07-10 13:12:00,
2013-07-10 09:17:00,75.4,70.3,29.98,West,270,1.8,4.9,84,0.00,,,0.00,WUHU216HW,2013-07-10 13:17:00,
2013-07-10 09:23:00,75.4,70.3,29.99,SW,225,1.6,4.9,84,0.00,,,0.00,WUHU216HW,2013-07-10 13:23:00,
2013-07-10 09:28:00,75.4,70.3,29.99,SW,225,2.5,4.9,84,0.00,,,0.00,WUHU216HW,2013-07-10 13:28:00,
2013-07-10 09:34:00,75.4,70.3,29.99,SW,225,0.2,4.9,84,0.00,,,0.00,WUHU216HW,2013-07-10 13:34:00,
2013-07-10 09:39:00,75.2,70.1,29.98,SW,225,1.1,4.9,84,0.00,,,0.00,WUHU216HW,2013-07-10 13:39:00,
2013-07-10 09:44:00,75.2,70.1,29.98,SSW,203,0.7,4.9,84,0.00,,,0.00,WUHU216HW,2013-07-10 13:44:00,
2013-07-10 09:49:00,75.2,70.1,29.99,SSW,203,2.0,4.9,84,0.00,,,0.00,WUHU216HW,2013-07-10 13:49:00,
2013-07-10 09:54:00,75.2,70.1,29.99,SSW,203,0.7,4.9,84,0.00,,,0.00,WUHU216HW,2013-07-10 13:54:00,
2013-07-10 09:59:00,75.2,70.1,29.99,SW,225,2.9,4.9,84,0.00,,,0.00,WUHU216HW,2013-07-10 13:59:00,
2013-07-10 10:04:00,75.2,70.1,29.99,WSW,248,1.1,4.9,84,0.00,,,0.00,WUHU216HW,2013-07-10 14:04:00,
2013-07-10 10:09:00,75.2,70.1,29.99,WSW,248,0.7,4.9,84,0.00,,,0.00,WUHU216HW,2013-07-10 14:09:00,
2013-07-10 10:14:00,75.2,70.1,29.99,West,270,0.4,4.9,84,0.00,,,0.00,WUHU216HW,2013-07-10 14:14:00,
2013-07-10 10:19:00,75.2,70.1,29.99,South,180,1.1,4.9,84,0.00,,,0.00,WUHU216HW,2013-07-10 14:19:00,
2013-07-10 10:24:00,75.4,70.3,30.00,West,270,1.8,4.9,84,0.00,,,0.00,WUHU216HW,2013-07-10 14:24:00,
2013-07-10 10:29:00,75.4,70.3,30.00,NW,315,0.4,4.9,84,0.00,,,0.00,WUHU216HW,2013-07-10 14:29:00,
2013-07-10 10:34:00,75.6,70.5,30.00,SW,225,1.1,4.9,84,0.00,,,0.00,WUHU216HW,2013-07-10 14:34:00,
2013-07-10 10:39:00,75.4,70.3,30.00,South,180,0.4,4.9,84,0.00,,,0.00,WUHU216HW,2013-07-10 14:39:00,
2013-07-10 10:44:00,75.4,70.7,30.00,SSE,158,0.2,4.9,85,0.01,,,0.00,WUHU216HW,2013-07-10 14:44:00,
2013-07-10 10:49:00,75.6,70.8,30.00,South,180,0.7,4.9,85,0.01,,,0.00,WUHU216HW,2013-07-10 14:49:00,
2013-07-10 10:54:00,75.6,70.8,30.00,South,180,1.8,4.9,85,0.01,,,0.00,WUHU216HW,2013-07-10 14:54:00,
2013-07-10 10:59:00,75.8,71.0,29.99,SSE,158,1.8,4.9,85,0.01,,,0.00,WUHU216HW,2013-07-10 14:59:00,
2013-07-10 11:04:00,76.0,71.2,29.99,WSW,248,4.9,4.9,85,0.01,,,0.00,WUHU216HW,2013-07-10 15:04:00,
2013-07-10 11:09:00,76.1,71.3,29.99,SSW,203,4.9,5.8,85,0.01,,,0.00,WUHU216HW,2013-07-10 15:09:00,
2013-07-10 11:14:00,76.3,71.5,29.99,WSW,248,1.1,5.8,85,0.01,,,0.00,WUHU216HW,2013-07-10 15:14:00,
2013-07-10 11:19:00,76.3,71.5,29.99,SSW,203,3.4,4.9,85,0.01,,,0.00,WUHU216HW,2013-07-10 15:19:00,
2013-07-10 11:24:00,76.3,71.5,29.99,South,180,3.6,4.9,85,0.01,,,0.00,WUHU216HW,2013-07-10 15:24:00,
2013-07-10 11:29:00,76.5,71.6,29.99,WSW,248,3.4,6.9,85,0.01,,,0.00,WUHU216HW,2013-07-10 15:29:00,
2013-07-10 11:34:00,76.7,71.8,29.99,WSW,248,2.5,6.9,85,0.01,,,0.00,WUHU216HW,2013-07-10 15:34:00,
2013-07-10 11:39:00,76.9,72.0,29.99,West,270,1.1,4.9,85,0.01,,,0.00,WUHU216HW,2013-07-10 15:39:00,
2013-07-10 11:44:00,76.9,72.0,29.99,ENE,68,0.4,4.9,85,0.00,,,0.00,WUHU216HW,2013-07-10 15:44:00,
2013-07-10 11:49:00,77.0,72.2,29.99,South,180,0.0,4.9,85,0.00,,,0.00,WUHU216HW,2013-07-10 15:49:00,
2013-07-10 11:54:00,77.2,72.4,29.99,WSW,248,4.7,4.9,85,0.00,,,0.00,WUHU216HW,2013-07-10 15:54:00,
2013-07-10 11:59:00,77.4,72.5,29.99,SSW,203,1.3,4.9,85,0.00,,,0.00,WUHU216HW,2013-07-10 15:59:00,
2013-07-10 12:04:00,77.4,72.5,29.98,West,270,3.6,4.9,85,0.00,,,0.00,WUHU216HW,2013-07-10 16:04:00,
2013-07-10 12:09:00,77.4,72.2,29.99,SW,225,4.3,4.9,84,0.00,,,0.00,WUHU216HW,2013-07-10 16:09:00,
2013-07-10 12:14:00,77.4,72.2,29.98,SSW,203,3.4,4.9,84,0.00,,,0.00,WUHU216HW,2013-07-10 16:14:00,
2013-07-10 12:19:00,77.2,72.0,29.98,WSW,248,2.5,4.9,84,0.00,,,0.00,WUHU216HW,2013-07-10 16:19:00,
2013-07-10 12:24:00,77.0,72.2,29.98,WSW,248,0.4,4.9,85,0.00,,,0.00,WUHU216HW,2013-07-10 16:24:00,
2013-07-10 12:29:00,77.0,72.2,29.98,South,180,2.0,4.9,85,0.00,,,0.00,WUHU216HW,2013-07-10 16:29:00,
2013-07-10 12:34:00,77.0,72.2,29.98,South,180,1.8,4.9,85,0.00,,,0.00,WUHU216HW,2013-07-10 16:34:00,
2013-07-10 12:40:00,77.4,72.5,29.98,South,180,1.3,4.9,85,0.00,,,0.00,WUHU216HW,2013-07-10 16:40:00,
2013-07-10 12:45:00,77.8,72.9,29.98,WSW,248,1.6,4.9,85,0.00,,,0.00,WUHU216HW,2013-07-10 16:45:00,
2013-07-10 12:50:00,78.1,73.3,29.97,SSW,203,3.1,4.9,85,0.00,,,0.00,WUHU216HW,2013-07-10 16:50:00,
2013-07-10 12:55:00,78.8,73.6,29.97,SSW,203,4.3,6.7,84,0.00,,,0.00,WUHU216HW,2013-07-10 16:55:00,
2013-07-10 13:02:00,79.6,74.4,29.97,ESE,113,1.6,6.7,84,0.00,,,0.00,WUHU216HW,2013-07-10 17:02:00,
2013-07-10 13:07:00,80.3,74.7,29.97,NE,45,1.1,6.3,83,0.00,,,0.00,WUHU216HW,2013-07-10 17:07:00,
2013-07-10 13:12:00,81.4,75.1,29.97,SSE,158,4.0,6.9,81,0.00,,,0.00,WUHU216HW,2013-07-10 17:12:00,
2013-07-10 13:17:00,82.3,75.2,29.97,West,270,6.7,6.9,79,0.00,,,0.00,WUHU216HW,2013-07-10 17:17:00,
2013-07-10 13:22:00,83.0,75.9,29.97,SW,225,7.2,7.6,79,0.00,,,0.00,WUHU216HW,2013-07-10 17:22:00,
2013-07-10 13:27:00,83.9,74.3,29.97,SW,225,1.1,7.6,73,0.00,,,0.00,WUHU216HW,2013-07-10 17:27:00,
2013-07-10 13:32:00,84.6,74.6,29.96,SE,135,1.3,4.9,72,0.00,,,0.00,WUHU216HW,2013-07-10 17:32:00,
2013-07-10 13:37:00,84.6,73.8,29.97,NNW,338,0.4,4.9,70,0.00,,,0.00,WUHU216HW,2013-07-10 17:37:00,
2013-07-10 13:42:00,84.2,74.3,29.97,SW,225,1.8,4.9,72,0.00,,,0.00,WUHU216HW,2013-07-10 17:42:00,
2013-07-10 13:47:00,83.7,73.3,29.97,SSE,158,2.5,4.9,71,0.00,,,0.00,WUHU216HW,2013-07-10 17:47:00,
2013-07-10 13:52:00,83.3,72.9,29.97,NNE,23,2.5,4.9,71,0.00,,,0.00,WUHU216HW,2013-07-10 17:52:00,
2013-07-10 13:57:00,82.1,69.9,29.98,NNE,23,4.9,4.9,67,0.00,,,0.00,WUHU216HW,2013-07-10 17:57:00,
2013-07-10 14:02:00,81.4,69.8,29.97,NNE,23,4.0,6.3,68,0.00,,,0.00,WUHU216HW,2013-07-10 18:02:00,
2013-07-10 14:08:00,80.3,68.8,29.97,North,0,3.4,5.6,68,0.00,,,0.00,WUHU216HW,2013-07-10 18:08:00,
2013-07-10 14:13:00,80.1,69.0,29.97,North,0,1.6,5.6,69,0.00,,,0.00,WUHU216HW,2013-07-10 18:13:00,
2013-07-10 14:18:00,80.1,69.5,29.96,NNE,23,0.4,4.9,70,0.00,,,0.00,WUHU216HW,2013-07-10 18:18:00,
2013-07-10 14:23:00,80.3,69.7,29.95,SSW,203,0.0,4.9,70,0.00,,,0.00,WUHU216HW,2013-07-10 18:23:00,
2013-07-10 14:28:00,80.3,68.8,29.94,SSE,158,1.1,4.9,68,0.00,,,0.00,WUHU216HW,2013-07-10 18:28:00,
2013-07-10 14:33:00,80.3,68.3,29.94,SSE,158,1.8,4.9,67,0.00,,,0.00,WUHU216HW,2013-07-10 18:33:00,
2013-07-10 14:38:00,80.1,68.6,29.93,South,180,0.0,4.9,68,0.00,,,0.00,WUHU216HW,2013-07-10 18:38:00,
2013-07-10 14:44:00,80.1,67.7,29.92,SSE,158,2.9,4.9,66,0.00,,,0.00,WUHU216HW,2013-07-10 18:44:00,
2013-07-10 14:49:00,80.1,69.0,29.92,SSE,158,0.9,4.9,69,0.00,,,0.00,WUHU216HW,2013-07-10 18:49:00,
2013-07-10 14:55:00,79.9,69.7,29.92,SSE,158,0.2,4.9,71,0.00,,,0.00,WUHU216HW,2013-07-10 18:55:00,
2013-07-10 15:00:00,79.6,68.9,29.92,SSW,203,3.1,4.9,70,0.00,,,0.00,WUHU216HW,2013-07-10 19:00:00,
2013-07-10 15:05:00,79.6,69.8,29.92,SSW,203,2.2,4.9,72,0.00,,,0.00,WUHU216HW,2013-07-10 19:05:00,
2013-07-10 15:10:00,79.2,69.4,29.91,WSW,248,4.7,6.3,72,0.00,,,0.00,WUHU216HW,2013-07-10 19:10:00,
2013-07-10 15:15:00,78.8,69.4,29.91,WSW,248,1.1,6.3,73,0.00,,,0.00,WUHU216HW,2013-07-10 19:15:00,
2013-07-10 15:20:00,79.0,70.0,29.91,SSW,203,3.1,4.9,74,0.00,,,0.00,WUHU216HW,2013-07-10 19:20:00,
2013-07-10 15:25:00,79.6,70.6,29.90,SSW,203,3.4,4.9,74,0.00,,,0.00,WUHU216HW,2013-07-10 19:25:00,
2013-07-10 15:30:00,80.3,71.3,29.90,North,0,2.5,4.9,74,0.00,,,0.00,WUHU216HW,2013-07-10 19:30:00,
2013-07-10 15:35:00,80.8,71.4,29.90,North,0,1.3,5.6,73,0.00,,,0.00,WUHU216HW,2013-07-10 19:35:00,
2013-07-10 15:40:00,81.7,72.2,29.89,SW,225,6.5,6.5,73,0.00,,,0.00,WUHU216HW,2013-07-10 19:40:00,
2013-07-10 15:45:00,82.4,73.3,29.89,SSW,203,1.6,6.9,74,0.00,,,0.00,WUHU216HW,2013-07-10 19:45:00,
2013-07-10 15:50:00,82.8,73.3,29.89,SSW,203,6.3,6.9,73,0.00,,,0.00,WUHU216HW,2013-07-10 19:50:00,
2013-07-10 15:55:00,83.0,73.0,29.89,WSW,248,9.2,9.2,72,0.00,,,0.00,WUHU216HW,2013-07-10 19:55:00,
2013-07-10 16:00:00,83.3,73.4,29.88,South,180,3.6,9.2,72,0.00,,,0.00,WUHU216HW,2013-07-10 20:00:00,
2013-07-10 16:05:00,83.5,73.1,29.88,SW,225,6.3,6.3,71,0.00,,,0.00,WUHU216HW,2013-07-10 20:05:00,
2013-07-10 16:10:00,83.7,73.7,29.88,SSW,203,4.3,6.3,72,0.00,,,0.00,WUHU216HW,2013-07-10 20:10:00,
2013-07-10 16:15:00,83.7,73.7,29.87,SW,225,4.5,7.2,72,0.00,,,0.00,WUHU216HW,2013-07-10 20:15:00,
2013-07-10 16:21:00,83.9,73.9,29.86,SW,225,4.0,7.2,72,0.00,,,0.00,WUHU216HW,2013-07-10 20:21:00,
2013-07-10 16:26:00,84.2,73.0,29.86,SE,135,4.7,10.7,69,0.00,,,0.00,WUHU216HW,2013-07-10 20:26:00,
2013-07-10 16:31:00,84.4,74.0,29.86,SW,225,1.6,10.7,71,0.00,,,0.00,WUHU216HW,2013-07-10 20:31:00,
2013-07-10 16:36:00,84.4,74.0,29.86,West,270,2.9,6.3,71,0.00,,,0.00,WUHU216HW,2013-07-10 20:36:00,
2013-07-10 16:42:00,84.2,73.8,29.86,SW,225,6.3,7.8,71,0.00,,,0.00,WUHU216HW,2013-07-10 20:42:00,
2013-07-10 16:47:00,84.4,73.6,29.85,SSW,203,2.5,7.8,70,0.00,,,0.00,WUHU216HW,2013-07-10 20:47:00,
2013-07-10 16:52:00,84.4,74.0,29.86,WSW,248,8.3,8.3,71,0.00,,,0.00,WUHU216HW,2013-07-10 20:52:00,
2013-07-10 16:57:00,84.4,73.6,29.87,SW,225,6.3,8.3,70,0.00,,,0.00,WUHU216HW,2013-07-10 20:57:00,
2013-07-10 17:02:00,84.6,73.4,29.86,SSW,203,4.7,7.6,69,0.00,,,0.00,WUHU216HW,2013-07-10 21:02:00,
2013-07-10 17:07:00,84.6,73.4,29.86,South,180,5.8,7.6,69,0.00,,,0.00,WUHU216HW,2013-07-10 21:07:00,
2013-07-10 17:13:00,84.6,73.4,29.86,SSW,203,4.7,6.7,69,0.00,,,0.00,WUHU216HW,2013-07-10 21:13:00,
2013-07-10 17:18:00,84.6,73.4,29.86,SSW,203,6.0,8.7,69,0.00,,,0.00,WUHU216HW,2013-07-10 21:18:00,
2013-07-10 17:23:00,84.6,73.4,29.86,SSE,158,4.0,9.6,69,0.00,,,0.00,WUHU216HW,2013-07-10 21:23:00,
2013-07-10 17:28:00,84.6,73.4,29.86,SSW,203,2.7,9.6,69,0.00,,,0.00,WUHU216HW,2013-07-10 21:28:00,
2013-07-10 17:33:00,84.4,73.6,29.86,SW,225,5.8,12.3,70,0.00,,,0.00,WUHU216HW,2013-07-10 21:33:00,
2013-07-10 17:38:00,84.4,73.6,29.86,SSW,203,5.4,12.3,70,0.00,,,0.00,WUHU216HW,2013-07-10 21:38:00,
2013-07-10 17:43:00,84.4,73.2,29.87,SSW,203,5.6,8.9,69,0.00,,,0.00,WUHU216HW,2013-07-10 21:43:00,
2013-07-10 17:48:00,84.2,73.0,29.87,SW,225,4.0,6.9,69,0.00,,,0.00,WUHU216HW,2013-07-10 21:48:00,
2013-07-10 17:53:00,84.1,73.6,29.86,West,270,2.5,6.5,71,0.00,,,0.00,WUHU216HW,2013-07-10 21:53:00,
2013-07-10 17:58:00,83.9,73.9,29.87,SE,135,4.7,5.4,72,0.00,,,0.00,WUHU216HW,2013-07-10 21:58:00,
2013-07-10 18:03:00,83.7,73.7,29.87,SSW,203,4.7,5.4,72,0.00,,,0.00,WUHU216HW,2013-07-10 22:03:00,
2013-07-10 18:08:00,83.7,74.1,29.87,SSE,158,0.7,8.7,73,0.00,,,0.00,WUHU216HW,2013-07-10 22:08:00,
2013-07-10 18:13:00,83.5,74.4,29.87,SSW,203,2.7,8.7,74,0.00,,,0.00,WUHU216HW,2013-07-10 22:13:00,
2013-07-10 18:18:00,83.3,73.4,29.87,SSE,158,4.0,5.8,72,0.00,,,0.00,WUHU216HW,2013-07-10 22:18:00,
2013-07-10 18:23:00,83.3,73.8,29.87,SSW,203,4.7,6.3,73,0.00,,,0.00,WUHU216HW,2013-07-10 22:23:00,
2013-07-10 18:28:00,83.2,73.2,29.87,WSW,248,4.0,6.3,72,0.00,,,0.00,WUHU216HW,2013-07-10 22:28:00,
2013-07-10 18:33:00,83.2,73.2,29.87,South,180,2.2,4.9,72,0.00,,,0.00,WUHU216HW,2013-07-10 22:33:00,
2013-07-10 18:38:00,83.0,73.5,29.86,SSW,203,0.9,4.9,73,0.00,,,0.00,WUHU216HW,2013-07-10 22:38:00,
2013-07-10 18:43:00,83.0,73.8,29.86,SW,225,1.6,4.9,74,0.00,,,0.00,WUHU216HW,2013-07-10 22:43:00,
2013-07-10 18:48:00,82.8,73.6,29.86,WSW,248,3.1,6.0,74,0.00,,,0.00,WUHU216HW,2013-07-10 22:48:00,
2013-07-10 18:53:00,82.6,73.4,29.86,SSW,203,4.5,6.0,74,0.00,,,0.00,WUHU216HW,2013-07-10 22:53:00,
2013-07-10 18:59:00,82.4,73.3,29.86,South,180,5.6,5.6,74,0.00,,,0.00,WUHU216HW,2013-07-10 22:59:00,
2013-07-10 19:04:00,82.3,73.5,29.86,WSW,248,2.9,6.7,75,0.00,,,0.00,WUHU216HW,2013-07-10 23:04:00,
2013-07-10 19:09:00,82.1,73.0,29.87,SW,225,5.6,8.5,74,0.00,,,0.00,WUHU216HW,2013-07-10 23:09:00,
2013-07-10 19:14:00,82.1,73.4,29.87,WSW,248,3.8,8.5,75,0.00,,,0.00,WUHU216HW,2013-07-10 23:14:00,
2013-07-10 19:19:00,82.1,73.4,29.88,SW,225,3.4,6.3,75,0.00,,,0.00,WUHU216HW,2013-07-10 23:19:00,
2013-07-10 19:24:00,81.7,72.6,29.88,South,180,1.8,5.6,74,0.00,,,0.00,WUHU216HW,2013-07-10 23:24:00,
2013-07-10 19:29:00,81.7,72.6,29.88,SSE,158,1.3,4.9,74,0.00,,,0.00,WUHU216HW,2013-07-10 23:29:00,
2013-07-10 19:34:00,81.7,72.6,29.88,SW,225,5.1,5.4,74,0.00,,,0.00,WUHU216HW,2013-07-10 23:34:00,
2013-07-10 19:39:00,81.5,72.0,29.88,SSW,203,4.9,9.4,73,0.00,,,0.00,WUHU216HW,2013-07-10 23:39:00,
2013-07-10 19:44:00,81.4,71.1,29.89,SW,225,4.0,9.6,71,0.00,,,0.00,WUHU216HW,2013-07-10 23:44:00,
2013-07-10 19:49:00,81.2,70.5,29.89,SW,225,5.4,9.6,70,0.00,,,0.00,WUHU216HW,2013-07-10 23:49:00,
2013-07-10 19:54:00,81.0,70.4,29.89,SW,225,8.1,8.9,70,0.00,,,0.00,WUHU216HW,2013-07-10 23:54:00,
2013-07-10 19:59:00,80.6,70.0,29.88,SSW,203,2.9,8.9,70,0.00,,,0.00,WUHU216HW,2013-07-10 23:59:00,
2013-07-10 20:04:00,80.5,69.8,29.89,SW,225,2.7,9.8,70,0.00,,,0.00,WUHU216HW,2013-07-11 00:04:00,
2013-07-10 20:09:00,80.1,69.8,29.89,WSW,248,5.4,9.8,71,0.00,,,0.00,WUHU216HW,2013-07-11 00:09:00,
2013-07-10 20:14:00,79.7,69.5,29.89,SW,225,7.6,7.6,71,0.00,,,0.00,WUHU216HW,2013-07-11 00:14:00,
2013-07-10 20:19:00,79.6,69.3,29.89,WSW,248,5.4,7.6,71,0.00,,,0.00,WUHU216HW,2013-07-11 00:19:00,
2013-07-10 20:24:00,79.4,69.1,29.89,WSW,248,5.4,6.3,71,0.00,,,0.00,WUHU216HW,2013-07-11 00:24:00,
2013-07-10 20:29:00,79.2,68.9,29.89,SW,225,4.9,6.3,71,0.00,,,0.00,WUHU216HW,2013-07-11 00:29:00,
2013-07-10 20:34:00,78.8,68.6,29.89,South,180,6.5,6.7,71,0.00,,,0.00,WUHU216HW,2013-07-11 00:34:00,
2013-07-10 20:39:00,78.7,68.5,29.89,SW,225,4.7,6.7,71,0.00,,,0.00,WUHU216HW,2013-07-11 00:39:00,
2013-07-10 20:44:00,78.5,68.3,29.89,SW,225,5.4,6.3,71,0.00,,,0.00,WUHU216HW,2013-07-11 00:44:00,
2013-07-10 20:49:00,78.5,68.3,29.89,SSW,203,3.1,5.8,71,0.00,,,0.00,WUHU216HW,2013-07-11 00:49:00,
2013-07-10 20:54:00,78.1,68.0,29.89,SSW,203,4.0,5.4,71,0.00,,,0.00,WUHU216HW,2013-07-11 00:54:00,
2013-07-10 20:59:00,77.8,68.1,29.89,SSW,203,6.3,6.3,72,0.00,,,0.00,WUHU216HW,2013-07-11 00:59:00,
2013-07-10 21:04:00,77.4,67.7,29.88,SSW,203,4.0,6.3,72,0.00,,,0.00,WUHU216HW,2013-07-11 01:04:00,
2013-07-10 21:09:00,77.2,67.5,29.88,SSW,203,4.7,5.6,72,0.00,,,0.00,WUHU216HW,2013-07-11 01:09:00,
2013-07-10 21:14:00,77.0,67.8,29.88,SW,225,6.3,6.3,73,0.00,,,0.00,WUHU216HW,2013-07-11 01:14:00,
2013-07-10 21:19:00,76.7,67.4,29.88,WSW,248,3.6,6.3,73,0.00,,,0.00,WUHU216HW,2013-07-11 01:19:00,
2013-07-10 21:24:00,76.5,67.2,29.88,WSW,248,0.2,4.9,73,0.00,,,0.00,WUHU216HW,2013-07-11 01:24:00,
2013-07-10 21:29:00,76.3,67.4,29.88,West,270,0.7,4.9,74,0.00,,,0.00,WUHU216HW,2013-07-11 01:29:00,
2013-07-10 21:34:00,76.3,67.4,29.88,SSW,203,0.9,4.9,74,0.00,,,0.00,WUHU216HW,2013-07-11 01:34:00,
2013-07-10 21:39:00,76.3,67.4,29.88,SW,225,1.1,4.9,74,0.00,,,0.00,WUHU216HW,2013-07-11 01:39:00,
2013-07-10 21:44:00,76.5,67.6,29.88,SW,225,2.9,4.9,74,0.00,,,0.00,WUHU216HW,2013-07-11 01:44:00,
2013-07-10 21:49:00,76.5,67.6,29.88,WSW,248,1.8,4.9,74,0.00,,,0.00,WUHU216HW,2013-07-11 01:49:00,
2013-07-10 21:54:00,76.5,67.6,29.88,SSE,158,2.0,4.9,74,0.00,,,0.00,WUHU216HW,2013-07-11 01:54:00,
2013-07-10 21:59:00,76.3,67.8,29.88,SSW,203,1.8,4.9,75,0.00,,,0.00,WUHU216HW,2013-07-11 01:59:00,
2013-07-10 22:04:00,76.3,67.8,29.88,West,270,0.2,4.9,75,0.00,,,0.00,WUHU216HW,2013-07-11 02:04:00,
2013-07-10 22:09:00,76.1,67.7,29.88,SW,225,3.4,4.9,75,0.00,,,0.00,WUHU216HW,2013-07-11 02:09:00,
2013-07-10 22:14:00,76.1,67.7,29.88,SSW,203,2.5,4.9,75,0.00,,,0.00,WUHU216HW,2013-07-11 02:14:00,
2013-07-10 22:19:00,76.1,67.7,29.88,WSW,248,3.1,4.9,75,0.00,,,0.00,WUHU216HW,2013-07-11 02:19:00,
2013-07-10 22:24:00,76.1,67.7,29.88,SSW,203,1.1,4.9,75,0.00,,,0.00,WUHU216HW,2013-07-11 02:24:00,
2013-07-10 22:29:00,76.1,67.7,29.88,SSW,203,1.8,4.9,75,0.00,,,0.00,WUHU216HW,2013-07-11 02:29:00,
2013-07-10 22:34:00,76.1,67.7,29.88,SSE,158,0.4,4.9,75,0.00,,,0.00,WUHU216HW,2013-07-11 02:34:00,
2013-07-10 22:39:00,76.1,68.1,29.88,SSW,203,3.1,4.9,76,0.00,,,0.00,WUHU216HW,2013-07-11 02:39:00,
2013-07-10 22:44:00,76.1,68.1,29.88,SSW,203,4.7,4.9,76,0.00,,,0.00,WUHU216HW,2013-07-11 02:44:00,
2013-07-10 22:49:00,76.1,68.4,29.90,North,0,1.1,4.9,77,0.00,,,0.00,WUHU216HW,2013-07-11 02:49:00,
2013-07-10 22:54:00,76.3,68.2,29.90,North,0,1.1,4.9,76,0.00,,,0.00,WUHU216HW,2013-07-11 02:54:00,
2013-07-10 22:59:00,76.3,68.6,29.89,SW,225,9.2,9.2,77,0.00,,,0.00,WUHU216HW,2013-07-11 02:59:00,
2013-07-10 23:04:00,76.5,68.8,29.90,NE,45,0.7,9.2,77,0.00,,,0.00,WUHU216HW,2013-07-11 03:04:00,
2013-07-10 23:09:00,76.5,68.8,29.89,SW,225,4.0,4.9,77,0.00,,,0.00,WUHU216HW,2013-07-11 03:09:00,
2013-07-10 23:14:00,76.7,69.0,29.89,South,180,0.9,4.9,77,0.00,,,0.00,WUHU216HW,2013-07-11 03:14:00,
2013-07-10 23:19:00,76.7,69.0,29.89,SW,225,3.4,4.9,77,0.00,,,0.00,WUHU216HW,2013-07-11 03:19:00,
2013-07-10 23:24:00,76.5,68.8,29.89,North,0,0.2,4.9,77,0.01,,,0.00,WUHU216HW,2013-07-11 03:24:00,
2013-07-10 23:29:00,76.3,68.9,29.89,West,270,1.1,4.9,78,0.01,,,0.00,WUHU216HW,2013-07-11 03:29:00,
2013-07-10 23:34:00,76.0,68.7,29.88,SW,225,0.9,4.9,78,0.01,,,0.00,WUHU216HW,2013-07-11 03:34:00,
2013-07-10 23:39:00,75.4,68.5,29.88,WSW,248,1.8,4.9,79,0.01,,,0.00,WUHU216HW,2013-07-11 03:39:00,
2013-07-10 23:44:00,75.1,68.6,29.87,South,180,0.2,4.9,80,0.01,,,0.00,WUHU216HW,2013-07-11 03:44:00,
2013-07-10 23:49:00,74.9,68.4,29.87,SSW,203,2.9,4.9,80,0.01,,,0.00,WUHU216HW,2013-07-11 03:49:00,
2013-07-10 23:54:00,74.3,68.2,29.87,SSE,158,1.6,4.9,81,0.01,,,0.00,WUHU216HW,2013-07-11 03:54:00,
2013-07-10 23:59:00,74.0,67.9,29.87,WSW,248,0.7,4.9,81,0.01,,,0.00,WUHU216HW,2013-07-11 03:59:00,